createdAt,value
2019-02-26T00:01:50.493Z,6.77
2019-02-26T00:04:21.076Z,7.53
2019-02-26T00:06:51.821Z,6.43
2019-02-26T00:09:24.953Z,6.27
2019-02-26T00:11:54.758Z,6.83
2019-02-26T00:14:27.030Z,6.47
2019-02-26T00:16:56.541Z,7.17
2019-02-26T00:19:26.843Z,7.23
2019-02-26T00:21:57.017Z,6.33
2019-02-26T00:24:46.541Z,6.57
2019-02-26T00:27:16.742Z,5.97
2019-02-26T00:29:48.674Z,7.90
2019-02-26T00:32:18.599Z,6.70
2019-02-26T00:34:48.623Z,7.17
2019-02-26T00:37:20.069Z,7.10
2019-02-26T00:39:51.847Z,6.87
2019-02-26T00:42:24.268Z,8.13
2019-02-26T00:44:55.935Z,8.53
2019-02-26T00:47:25.555Z,8.17
2019-02-26T00:49:55.597Z,7.57
2019-02-26T00:52:25.577Z,8.57
2019-02-26T00:54:57.596Z,8.47
2019-02-26T00:57:29.193Z,7.93
2019-02-26T01:00:00.726Z,8.70
2019-02-26T01:02:30.757Z,8.40
2019-02-26T01:05:00.803Z,8.13
2019-02-26T01:07:30.895Z,8.37
2019-02-26T01:10:02.399Z,7.30
2019-02-26T01:12:33.080Z,8.50
2019-02-26T01:15:06.752Z,8.27
2019-02-26T01:17:38.363Z,8.73
2019-02-26T01:20:10.863Z,8.13
2019-02-26T01:22:42.835Z,8.27
2019-02-26T01:25:15.222Z,8.20
2019-02-26T01:27:47.802Z,7.67
2019-02-26T01:30:20.677Z,8.80
2019-02-26T01:32:48.523Z,7.83
2019-02-26T01:35:18.645Z,8.93
2019-02-26T01:37:49.347Z,8.83
2019-02-26T01:40:21.778Z,9.03
2019-02-26T01:42:55.155Z,9.37
2019-02-26T01:45:27.323Z,9.77
2019-02-26T01:47:56.184Z,8.33
2019-02-26T01:50:27.990Z,9.40
2019-02-26T01:52:59.156Z,8.87
2019-02-26T01:55:29.707Z,9.20
2019-02-26T01:57:59.763Z,9.27
2019-02-26T02:00:29.938Z,8.77
2019-02-26T02:03:00.019Z,7.60
2019-02-26T02:05:31.383Z,7.30
2019-02-26T02:08:01.907Z,6.60
2019-02-26T02:10:31.897Z,6.27
2019-02-26T02:13:02.847Z,7.73
2019-02-26T02:15:35.571Z,7.23
2019-02-26T02:18:06.201Z,8.57
2019-02-26T02:20:36.225Z,9.43
2019-02-26T02:23:07.090Z,7.87
2019-02-26T02:25:38.748Z,6.57
2019-02-26T02:28:08.929Z,6.50
2019-02-26T02:30:39.210Z,6.30
2019-02-26T02:33:09.260Z,6.93
2019-02-26T02:35:39.265Z,7.53
2019-02-26T02:38:09.328Z,7.47
2019-02-26T02:40:40.208Z,6.77
2019-02-26T02:43:13.204Z,7.53
2019-02-26T02:45:42.769Z,7.53
2019-02-26T02:48:14.183Z,7.17
2019-02-26T02:50:44.356Z,7.77
2019-02-26T02:53:14.465Z,7.20
2019-02-26T02:55:47.026Z,8.77
2019-02-26T02:58:18.332Z,7.97
2019-02-26T03:00:49.337Z,7.00
2019-02-26T03:03:21.433Z,6.30
2019-02-26T03:05:51.435Z,7.80
2019-02-26T03:08:22.362Z,6.07
2019-02-26T03:10:52.694Z,6.90
2019-02-26T03:13:24.889Z,6.50
2019-02-26T03:15:56.689Z,7.77
2019-02-26T03:18:26.164Z,7.17
2019-02-26T03:20:56.715Z,8.03
2019-02-26T03:23:27.892Z,7.07
2019-02-26T03:25:57.897Z,6.90
2019-02-26T03:28:27.995Z,8.57
2019-02-26T03:30:58.017Z,7.77
2019-02-26T03:33:28.082Z,10.83
2019-02-26T03:35:58.073Z,9.77
2019-02-26T03:38:28.884Z,8.83
2019-02-26T03:41:01.156Z,8.07
2019-02-26T03:43:31.434Z,8.07
2019-02-26T03:46:02.569Z,10.33
2019-02-26T03:48:32.572Z,8.30
2019-02-26T03:51:02.612Z,6.40
2019-02-26T03:53:34.286Z,6.77
2019-02-26T03:56:08.153Z,7.53
2019-02-26T03:58:36.274Z,6.33
2019-02-26T04:01:08.396Z,7.60
2019-02-26T04:03:39.518Z,7.10
2019-02-26T04:06:12.211Z,7.30
2019-02-26T04:08:42.767Z,8.03
2019-02-26T04:11:16.552Z,7.00
2019-02-26T04:13:45.881Z,9.10
2019-02-26T04:16:16.813Z,7.37
2019-02-26T04:18:51.033Z,7.70
2019-02-26T04:21:20.923Z,7.27
2019-02-26T04:23:51.406Z,8.43
2019-02-26T04:27:06.926Z,7.00
2019-02-26T04:29:55.776Z,7.00
2019-02-26T04:33:20.757Z,6.83
2019-02-26T04:36:23.811Z,7.27
2019-02-26T04:39:10.850Z,6.80
2019-02-26T04:41:53.958Z,6.43
2019-02-26T04:45:16.025Z,6.83
2019-02-26T04:47:48.656Z,7.83
2019-02-26T04:50:17.800Z,8.20
2019-02-26T04:52:47.881Z,8.20
2019-02-26T04:55:17.870Z,7.80
2019-02-26T04:57:50.602Z,7.07
2019-02-26T05:00:19.709Z,7.03
2019-02-26T05:02:49.810Z,6.77
2019-02-26T05:05:22.432Z,7.17
2019-02-26T05:07:51.723Z,6.00
2019-02-26T05:10:24.283Z,6.77
2019-02-26T05:12:57.134Z,7.47
2019-02-26T05:15:26.242Z,7.37
2019-02-26T05:17:56.887Z,8.00
2019-02-26T05:20:26.864Z,8.20
2019-02-26T05:23:00.046Z,6.93
2019-02-26T05:25:28.657Z,7.87
2019-02-26T05:27:58.789Z,7.43
2019-02-26T05:30:28.881Z,6.97
2019-02-26T05:33:00.818Z,7.83
2019-02-26T05:35:33.508Z,8.43
2019-02-26T05:38:06.825Z,7.47
2019-02-26T05:40:37.432Z,7.23
2019-02-26T05:43:07.107Z,6.60
2019-02-26T05:45:37.189Z,7.60
2019-02-26T05:48:07.250Z,7.67
2019-02-26T05:50:38.666Z,7.27
2019-02-26T05:53:11.267Z,7.40
2019-02-26T05:55:42.239Z,6.77
2019-02-26T05:58:15.651Z,6.57
2019-02-26T06:00:44.689Z,7.30
2019-02-26T06:03:16.280Z,7.70
2019-02-26T06:05:48.966Z,7.17
2019-02-26T06:08:18.225Z,7.17
2019-02-26T06:10:48.760Z,7.43
2019-02-26T06:13:18.834Z,7.70
2019-02-26T06:15:51.431Z,7.27
2019-02-26T06:18:21.034Z,7.87
2019-02-26T06:20:53.431Z,7.53
2019-02-26T06:23:23.195Z,8.23
2019-02-26T06:25:55.995Z,7.67
2019-02-26T06:28:26.361Z,7.37
2019-02-26T06:31:00.913Z,9.37
2019-02-26T06:33:34.118Z,6.83
2019-02-26T06:36:04.698Z,9.23
2019-02-26T06:38:35.049Z,7.60
2019-02-26T06:41:05.273Z,7.43
2019-02-26T06:43:37.551Z,17.17
2019-02-26T06:46:09.338Z,10.40
2019-02-26T06:48:38.830Z,9.20
2019-02-26T06:51:08.871Z,8.90
2019-02-26T06:53:38.908Z,7.60
2019-02-26T06:56:09.036Z,8.37
2019-02-26T06:58:41.123Z,10.07
2019-02-26T07:01:12.018Z,19.92
2019-02-26T07:03:42.485Z,12.37
2019-02-26T07:06:12.648Z,10.00
2019-02-26T07:08:44.496Z,8.10
2019-02-26T07:11:14.517Z,10.13
2019-02-26T07:13:46.411Z,9.47
2019-02-26T07:16:18.081Z,9.30
2019-02-26T07:18:47.973Z,9.07
2019-02-26T07:21:17.997Z,8.63
2019-02-26T07:23:48.011Z,8.10
2019-02-26T07:26:18.902Z,8.23
2019-02-26T07:28:51.070Z,8.97
2019-02-26T07:31:21.327Z,7.70
2019-02-26T07:33:53.212Z,8.17
2019-02-26T07:36:23.690Z,8.77
2019-02-26T07:38:56.534Z,8.63
2019-02-26T07:41:29.832Z,8.93
2019-02-26T07:43:59.971Z,10.37
2019-02-26T07:46:30.160Z,8.77
2019-02-26T07:49:02.633Z,10.07
2019-02-26T07:51:33.840Z,10.73
2019-02-26T07:54:03.737Z,11.10
2019-02-26T07:56:33.786Z,10.13
2019-02-26T07:59:06.741Z,10.43
2019-02-26T08:01:37.491Z,10.33
2019-02-26T08:04:09.351Z,9.70
2019-02-26T08:06:39.042Z,10.27
2019-02-26T08:09:12.158Z,10.70
2019-02-26T08:11:43.826Z,9.13
2019-02-26T08:14:15.779Z,10.47
2019-02-26T08:16:49.224Z,9.60
2019-02-26T08:19:17.143Z,11.53
2019-02-26T08:21:47.913Z,10.93
2019-02-26T08:24:20.334Z,9.80
2019-02-26T08:26:50.621Z,11.23
2019-02-26T08:29:20.630Z,12.93
2019-02-26T08:31:52.124Z,10.80
2019-02-26T08:34:22.410Z,11.30
2019-02-26T08:36:52.509Z,11.00
2019-02-26T08:39:22.517Z,11.33
2019-02-26T08:42:09.650Z,10.97
2019-02-26T08:44:39.664Z,11.47
2019-02-26T08:47:13.472Z,12.87
2019-02-26T08:49:43.450Z,11.43
2019-02-26T08:52:16.829Z,12.07
2019-02-26T08:54:45.009Z,12.27
2019-02-26T08:57:15.049Z,12.23
2019-02-26T08:59:47.162Z,13.00
2019-02-26T09:02:17.201Z,13.33
2019-02-26T09:04:47.799Z,12.27
2019-02-26T09:07:19.567Z,13.60
2019-02-26T09:09:50.690Z,12.73
2019-02-26T09:12:27.109Z,12.57
2019-02-26T09:14:56.986Z,11.57
2019-02-26T09:17:29.909Z,12.50
2019-02-26T09:20:08.423Z,12.53
2019-02-26T09:22:30.873Z,11.90
2019-02-26T09:25:02.201Z,15.33
2019-02-26T09:27:35.113Z,13.03
2019-02-26T09:30:05.829Z,14.30
2019-02-26T09:32:39.293Z,12.33
2019-02-26T09:35:10.135Z,13.07
2019-02-26T09:37:40.272Z,13.77
2019-02-26T09:40:12.000Z,13.67
2019-02-26T09:42:43.753Z,12.63
2019-02-26T09:45:17.733Z,13.80
2019-02-26T09:47:49.609Z,12.77
2019-02-26T09:50:20.738Z,12.70
2019-02-26T09:52:53.456Z,12.57
2019-02-26T09:55:22.952Z,12.73
2019-02-26T09:57:53.028Z,12.57
2019-02-26T10:00:27.217Z,12.57
2019-02-26T10:02:55.711Z,14.27
2019-02-26T10:05:25.804Z,12.53
2019-02-26T10:07:58.027Z,12.87
2019-02-26T10:10:30.829Z,13.33
2019-02-26T10:13:02.128Z,12.90
2019-02-26T10:15:32.347Z,13.20
2019-02-26T10:18:06.201Z,13.10
2019-02-26T10:20:35.062Z,12.90
2019-02-26T10:23:06.337Z,12.27
2019-02-26T10:25:38.599Z,13.60
2019-02-26T10:28:11.166Z,13.33
2019-02-26T10:30:41.710Z,12.27
2019-02-26T10:33:12.020Z,13.23
2019-02-26T10:35:45.065Z,13.97
2019-02-26T10:38:13.980Z,12.60
2019-02-26T10:40:53.476Z,12.43
2019-02-26T10:43:15.860Z,11.80
2019-02-26T10:45:47.449Z,11.63
2019-02-26T10:48:19.768Z,13.93
2019-02-26T10:50:51.759Z,12.53
2019-02-26T10:53:22.641Z,10.93
2019-02-26T10:55:52.840Z,12.63
2019-02-26T10:58:22.958Z,11.53
2019-02-26T11:00:55.586Z,12.60
2019-02-26T11:03:25.839Z,12.77
2019-02-26T11:05:55.885Z,12.33
2019-02-26T11:08:28.943Z,12.10
2019-02-26T11:10:57.772Z,10.87
2019-02-26T11:13:27.806Z,11.93
2019-02-26T11:15:59.911Z,11.27
2019-02-26T11:18:29.778Z,10.83
2019-02-26T11:20:59.798Z,10.93
2019-02-26T11:23:31.151Z,12.23
2019-02-26T11:26:01.645Z,11.93
2019-02-26T11:28:33.259Z,11.87
2019-02-26T11:31:03.527Z,11.83
2019-02-26T11:33:33.668Z,11.37
2019-02-26T11:36:05.539Z,11.80
2019-02-26T11:38:39.069Z,10.77
2019-02-26T11:41:07.347Z,11.40
2019-02-26T11:43:37.456Z,11.87
2019-02-26T11:46:08.743Z,12.87
2019-02-26T11:48:38.905Z,12.07
2019-02-26T11:51:08.919Z,11.67
2019-02-26T11:53:39.044Z,11.87
2019-02-26T11:56:09.170Z,12.30
2019-02-26T11:58:39.247Z,12.23
2019-02-26T12:01:12.120Z,12.50
2019-02-26T12:03:43.857Z,11.60
2019-02-26T12:06:14.136Z,13.27
2019-02-26T12:08:44.973Z,12.27
2019-02-26T12:11:17.812Z,13.60
2019-02-26T12:13:50.085Z,13.47
2019-02-26T12:16:19.701Z,12.20
2019-02-26T12:18:49.849Z,13.27
2019-02-26T12:21:19.944Z,13.17
2019-02-26T12:23:49.991Z,14.40
2019-02-26T12:26:22.186Z,11.33
2019-02-26T12:28:52.825Z,12.33
2019-02-26T12:31:25.310Z,11.90
2019-02-26T12:33:55.802Z,11.70
2019-02-26T12:36:26.630Z,11.83
2019-02-26T12:39:00.001Z,11.10
2019-02-26T12:41:29.529Z,13.03
2019-02-26T12:44:05.662Z,12.17
2019-02-26T12:46:33.935Z,13.87
2019-02-26T12:49:05.718Z,12.87
2019-02-26T12:51:35.875Z,12.63
2019-02-26T12:54:07.036Z,12.90
2019-02-26T12:56:37.805Z,12.83
2019-02-26T12:59:07.891Z,12.93
2019-02-26T13:01:39.758Z,13.47
2019-02-26T13:04:12.973Z,12.73
2019-02-26T13:06:45.260Z,13.17
2019-02-26T13:09:13.213Z,13.67
2019-02-26T13:12:00.457Z,13.13
2019-02-26T13:14:15.036Z,13.17
2019-02-26T13:16:46.289Z,12.83
2019-02-26T13:19:21.419Z,13.70
2019-02-26T13:21:48.673Z,12.53
2019-02-26T13:24:21.522Z,13.90
2019-02-26T13:26:51.675Z,12.97
2019-02-26T13:29:22.403Z,13.63
2019-02-26T13:34:24.289Z,13.50
2019-02-26T13:36:56.783Z,15.20
2019-02-26T13:39:29.849Z,13.73
2019-02-26T13:42:03.680Z,15.10
2019-02-26T13:44:29.879Z,14.50
2019-02-26T13:47:00.128Z,14.17
2019-02-26T13:49:30.229Z,15.30
2019-02-26T13:52:00.445Z,14.13
2019-02-26T13:54:30.541Z,15.33
2019-02-26T13:57:00.780Z,14.47
2019-02-26T13:59:30.925Z,14.23
2019-02-26T14:02:02.329Z,14.57
2019-02-26T14:04:32.444Z,14.60
2019-02-26T14:07:02.507Z,14.77
2019-02-26T14:09:32.633Z,13.60
2019-02-26T14:12:02.782Z,13.83
2019-02-26T14:14:33.055Z,13.87
2019-02-26T14:17:03.202Z,15.20
2019-02-26T14:19:33.284Z,13.90
2019-02-26T14:22:03.438Z,14.83
2019-02-26T14:24:33.522Z,14.00
2019-02-26T14:27:03.560Z,14.27
2019-02-26T14:29:33.611Z,14.47
2019-02-26T14:32:03.667Z,14.03
2019-02-26T14:34:33.702Z,14.57
2019-02-26T14:37:03.923Z,14.73
2019-02-26T14:39:34.010Z,15.23
2019-02-26T14:42:04.145Z,14.90
2019-02-26T14:44:34.231Z,15.53
2019-02-26T14:47:04.533Z,13.93
2019-02-26T14:49:34.653Z,14.70
2019-02-26T14:52:04.685Z,14.33
2019-02-26T14:54:34.712Z,13.70
2019-02-26T14:57:04.783Z,14.93
2019-02-26T14:59:34.890Z,14.63
2019-02-26T15:02:05.029Z,14.73
2019-02-26T15:04:35.133Z,14.70
2019-02-26T15:07:05.203Z,14.30
2019-02-26T15:09:35.326Z,14.60
2019-02-26T15:12:05.429Z,13.97
2019-02-26T15:14:35.540Z,15.43
2019-02-26T15:17:06.293Z,14.77
2019-02-26T15:19:36.417Z,13.73
2019-02-26T15:22:06.433Z,12.03
2019-02-26T15:24:36.554Z,11.80
2019-02-26T15:27:06.672Z,11.37
2019-02-26T15:29:36.807Z,11.70
2019-02-26T15:32:07.014Z,11.60
2019-02-26T15:34:37.142Z,10.90
2019-02-26T15:37:07.252Z,11.00
2019-02-26T15:39:37.322Z,13.03
2019-02-26T15:42:07.418Z,11.63
2019-02-26T15:44:37.533Z,12.60
2019-02-26T15:47:09.212Z,12.23
2019-02-26T15:49:39.490Z,11.23
2019-02-26T15:52:09.513Z,11.67
2019-02-26T15:54:39.571Z,10.97
2019-02-26T15:57:09.593Z,11.87
2019-02-26T15:59:39.641Z,10.30
2019-02-26T16:02:09.656Z,10.77
2019-02-26T16:04:39.830Z,12.10
2019-02-26T16:07:09.929Z,11.23
2019-02-26T16:09:40.010Z,11.23
2019-02-26T16:12:10.052Z,11.07
2019-02-26T16:14:40.110Z,10.80
2019-02-26T16:17:10.321Z,11.53
2019-02-26T16:19:40.350Z,10.73
2019-02-26T16:22:10.381Z,10.20
2019-02-26T16:24:40.618Z,11.00
2019-02-26T16:27:10.672Z,11.73
2019-02-26T16:29:40.739Z,10.17
2019-02-26T16:32:10.821Z,10.37
2019-02-26T16:34:40.869Z,11.63
2019-02-26T16:37:11.001Z,11.40
2019-02-26T16:39:41.111Z,10.40
2019-02-26T16:42:11.764Z,11.37
2019-02-26T16:44:42.395Z,12.70
2019-02-26T16:47:12.617Z,13.60
2019-02-26T16:49:44.203Z,12.13
2019-02-26T16:52:14.265Z,12.03
2019-02-26T16:54:44.395Z,11.30
2019-02-26T16:57:14.479Z,11.30
2019-02-26T16:59:44.547Z,12.30
2019-02-26T17:02:15.483Z,11.80
2019-02-26T17:04:45.497Z,10.97
2019-02-26T17:07:15.629Z,10.77
2019-02-26T17:09:45.688Z,11.00
2019-02-26T17:12:15.863Z,11.60
2019-02-26T17:14:46.083Z,10.43
2019-02-26T17:17:16.191Z,10.17
2019-02-26T17:19:48.368Z,10.17
2019-02-26T17:22:20.321Z,10.23
2019-02-26T17:24:53.395Z,10.70
2019-02-26T17:27:22.273Z,10.57
2019-02-26T17:29:52.466Z,11.47
2019-02-26T17:32:22.785Z,10.13
2019-02-26T17:34:53.802Z,10.97
2019-02-26T17:37:24.615Z,11.87
2019-02-26T17:39:54.703Z,11.60
2019-02-26T17:42:24.849Z,11.83
2019-02-26T17:44:55.084Z,12.83
2019-02-26T17:47:25.469Z,14.13
2019-02-26T17:49:55.644Z,13.10
2019-02-26T17:52:25.873Z,13.23
2019-02-26T17:54:55.941Z,12.13
2019-02-26T17:57:26.181Z,11.83
2019-02-26T17:59:56.307Z,12.27
2019-02-26T18:02:27.498Z,12.33
2019-02-26T18:04:58.508Z,11.70
2019-02-26T18:07:30.037Z,11.60
2019-02-26T18:10:00.217Z,12.57
2019-02-26T18:12:30.375Z,12.17
2019-02-26T18:15:00.552Z,12.87
2019-02-26T18:17:30.655Z,14.13
2019-02-26T18:20:00.812Z,13.17
2019-02-26T18:22:30.888Z,12.57
2019-02-26T18:25:01.742Z,13.50
2019-02-26T18:27:31.821Z,12.73
2019-02-26T18:30:02.329Z,12.73
2019-02-26T18:32:32.399Z,12.50
2019-02-26T18:35:02.501Z,13.13
2019-02-26T18:37:33.001Z,13.03
2019-02-26T18:40:03.215Z,12.57
2019-02-26T18:42:33.267Z,12.43
2019-02-26T18:45:03.383Z,13.27
2019-02-26T18:47:33.480Z,13.17
2019-02-26T18:50:03.554Z,12.83
2019-02-26T18:52:33.595Z,12.03
2019-02-26T18:55:03.784Z,13.83
2019-02-26T18:57:33.894Z,12.70
2019-02-26T19:00:05.636Z,11.90
2019-02-26T19:02:36.000Z,11.87
2019-02-26T19:05:06.959Z,14.33
2019-02-26T19:07:37.188Z,15.97
2019-02-26T19:10:09.201Z,14.93
2019-02-26T19:12:39.309Z,13.47
2019-02-26T19:15:12.576Z,13.47
2019-02-26T19:17:44.553Z,13.50
2019-02-26T19:20:15.565Z,14.67
2019-02-26T19:22:45.776Z,13.80
2019-02-26T19:25:15.842Z,14.10
2019-02-26T19:27:45.940Z,13.00
2019-02-26T19:30:17.203Z,14.57
2019-02-26T19:32:47.786Z,13.30
2019-02-26T19:35:18.415Z,12.47
2019-02-26T19:37:49.978Z,9.70
2019-02-26T19:40:21.740Z,9.33
2019-02-26T19:42:52.917Z,10.40
2019-02-26T19:45:26.465Z,9.37
2019-02-26T19:47:56.601Z,9.33
2019-02-26T19:50:26.713Z,10.57
2019-02-26T19:52:57.459Z,9.63
2019-02-26T19:55:31.128Z,10.87
2019-02-26T19:58:03.979Z,12.70
2019-02-26T20:00:33.014Z,15.53
2019-02-26T20:03:05.511Z,15.80
2019-02-26T20:05:34.828Z,10.07
2019-02-26T20:08:06.100Z,9.17
2019-02-26T20:10:36.234Z,9.90
2019-02-26T20:13:12.321Z,10.13
2019-02-26T20:15:38.011Z,10.10
2019-02-26T20:18:08.070Z,9.10
2019-02-26T20:20:40.946Z,9.67
2019-02-26T20:23:09.863Z,11.67
2019-02-26T20:25:42.465Z,10.83
2019-02-26T20:28:11.682Z,11.43
2019-02-26T20:30:41.717Z,10.90
2019-02-26T20:33:11.795Z,10.67
2019-02-26T20:35:45.116Z,9.90
2019-02-26T20:38:13.587Z,11.47
2019-02-26T20:40:43.625Z,10.43
2019-02-26T20:43:13.743Z,23.43
2019-02-26T20:45:43.779Z,25.13
2019-02-26T20:48:14.252Z,12.73
2019-02-26T20:50:44.297Z,11.20
2019-02-26T20:53:14.386Z,10.13
2019-02-26T20:55:52.217Z,10.10
2019-02-26T20:58:16.238Z,10.07
2019-02-26T21:00:48.227Z,10.13
2019-02-26T21:03:18.094Z,9.93
2019-02-26T21:05:48.198Z,9.87
2019-02-26T21:08:18.305Z,9.87
2019-02-26T21:10:48.731Z,9.80
2019-02-26T21:13:18.904Z,9.87
2019-02-26T21:15:48.924Z,15.73
2019-02-26T21:18:18.986Z,12.60
2019-02-26T21:20:49.348Z,14.83
2019-02-26T21:23:19.536Z,13.40
2019-02-26T21:25:49.518Z,12.87
2019-02-26T21:28:19.548Z,12.63
2019-02-26T21:30:49.675Z,12.10
2019-02-26T21:33:19.857Z,12.37
2019-02-26T21:35:51.925Z,13.73
2019-02-26T21:38:21.740Z,11.97
2019-02-26T21:40:52.134Z,11.50
2019-02-26T21:43:22.387Z,11.47
2019-02-26T21:45:52.445Z,12.20
2019-02-26T21:48:22.550Z,11.10
2019-02-26T21:50:54.513Z,11.63
2019-02-26T21:53:24.343Z,12.83
2019-02-26T21:55:55.644Z,9.57
2019-02-26T21:58:26.817Z,10.10
2019-02-26T22:00:57.431Z,8.57
2019-02-26T22:03:27.451Z,8.80
2019-02-26T22:06:05.072Z,8.73
2019-02-26T22:08:29.267Z,9.03
2019-02-26T22:10:59.402Z,10.80
2019-02-26T22:13:29.885Z,8.93
2019-02-26T22:16:00.062Z,11.13
2019-02-26T22:18:34.064Z,9.13
2019-02-26T22:21:02.314Z,9.17
2019-02-26T22:23:34.306Z,9.37
2019-02-26T22:26:04.141Z,7.93
2019-02-26T22:28:34.226Z,9.13
2019-02-26T22:31:04.239Z,8.97
2019-02-26T22:33:34.334Z,10.90
2019-02-26T22:36:04.390Z,9.20
2019-02-26T22:38:34.415Z,9.67
2019-02-26T22:41:04.854Z,10.57
2019-02-26T22:43:34.972Z,11.20
2019-02-26T22:46:05.092Z,9.67
2019-02-26T22:48:35.166Z,9.53
2019-02-26T22:51:05.269Z,9.97
2019-02-26T22:53:36.655Z,11.10
2019-02-26T22:56:07.274Z,11.17
2019-02-26T22:58:37.480Z,10.40
2019-02-26T23:01:30.513Z,10.03
2019-02-26T23:03:59.622Z,9.33
2019-02-26T23:06:31.701Z,10.17
2019-02-26T23:09:01.878Z,9.23
2019-02-26T23:11:32.682Z,9.43
2019-02-26T23:14:04.972Z,9.23
2019-02-26T23:16:35.892Z,9.27
2019-02-26T23:19:05.961Z,9.67
2019-02-26T23:21:36.927Z,8.43
2019-02-26T23:24:07.390Z,8.50
2019-02-26T23:26:41.889Z,8.27
2019-02-26T23:29:09.701Z,8.00
2019-02-26T23:31:39.783Z,7.57
2019-02-26T23:34:09.895Z,8.03
2019-02-26T23:36:39.993Z,9.07
2019-02-26T23:39:13.589Z,10.80
2019-02-26T23:41:44.986Z,8.27
2019-02-26T23:44:17.829Z,8.23
2019-02-26T23:46:47.277Z,7.77
2019-02-26T23:49:17.361Z,9.13
2019-02-26T23:51:47.841Z,8.00
2019-02-26T23:54:17.925Z,9.40
2019-02-26T23:56:49.839Z,9.27
2019-02-26T23:59:19.765Z,9.40
